Time;durP1;ratioP1;P1;durP2;ratioP2;P2;SDS_P1;SDS_P2;PMS_P1;PMS_P2;Temp;Humidity;BMP_temperature;BMP_pressure;BME280_temperature;BME280_humidity;BME280_pressure;Samples;Min_cycle;Max_cycle;Signal;HPM_P1;HPM_P2
2024/01/07 00:00:04;;;;;;;8.53;7.73;;;6.70;99.90;;;;;;4895978;29;20196;-65
2024/01/07 00:02:31;;;;;;;11.37;8.77;;;6.70;99.90;;;;;;4896526;29;20592;-65
2024/01/07 00:04:57;;;;;;;9.20;8.30;;;6.80;99.90;;;;;;4895906;29;20413;-64
2024/01/07 00:07:23;;;;;;;8.60;7.70;;;6.80;99.90;;;;;;4880246;29;20441;-65
2024/01/07 00:09:49;;;;;;;10.27;7.67;;;6.80;99.90;;;;;;4896287;29;20492;-65
2024/01/07 00:12:15;;;;;;;9.83;8.20;;;6.80;99.90;;;;;;4895840;29;20430;-65
2024/01/07 00:14:41;;;;;;;8.60;7.67;;;6.90;99.90;;;;;;4896325;29;20197;-65
2024/01/07 00:17:06;;;;;;;9.67;8.27;;;6.80;99.90;;;;;;4895479;29;20474;-65
2024/01/07 00:19:35;;;;;;;9.87;8.30;;;6.90;99.90;;;;;;4886290;29;20278;-65
2024/01/07 00:22:01;;;;;;;8.77;7.40;;;6.90;99.90;;;;;;4890505;29;20193;-64
2024/01/07 00:24:28;;;;;;;9.27;8.27;;;6.80;99.90;;;;;;4880089;29;20445;-65
2024/01/07 00:26:55;;;;;;;9.40;8.07;;;6.80;99.90;;;;;;4896072;29;20448;-61
2024/01/07 00:29:21;;;;;;;10.40;8.47;;;6.80;99.90;;;;;;4881791;29;20456;-65
2024/01/07 00:31:47;;;;;;;10.70;8.80;;;6.70;99.90;;;;;;4902858;29;20780;-66
2024/01/07 00:34:13;;;;;;;13.97;9.87;;;6.80;99.90;;;;;;4900676;29;20449;-65
2024/01/07 00:36:38;;;;;;;12.43;9.80;;;6.60;99.90;;;;;;4902019;29;20261;-65
2024/01/07 00:39:04;;;;;;;10.87;8.90;;;6.60;99.90;;;;;;4901942;29;20189;-65
2024/01/07 00:41:30;;;;;;;11.57;9.60;;;6.40;99.90;;;;;;4885442;29;20192;-65
2024/01/07 00:43:56;;;;;;;11.17;9.23;;;6.50;99.90;;;;;;4901742;29;20532;-61
2024/01/07 00:46:22;;;;;;;12.50;9.93;;;6.60;99.90;;;;;;4902407;29;20196;-65
2024/01/07 00:48:48;;;;;;;14.50;11.30;;;6.60;99.90;;;;;;4903027;29;20429;-65
2024/01/07 00:51:14;;;;;;;14.43;11.10;;;6.60;99.90;;;;;;4901816;29;20433;-65
2024/01/07 00:53:40;;;;;;;16.47;11.63;;;6.50;99.90;;;;;;4902496;29;20439;-65
2024/01/07 00:56:06;;;;;;;16.97;12.30;;;6.50;99.90;;;;;;4898464;29;20376;-65
2024/01/07 00:58:32;;;;;;;17.60;12.03;;;6.60;99.90;;;;;;4902076;29;20490;-65
2024/01/07 01:00:59;;;;;;;15.93;12.00;;;6.60;99.90;;;;;;4901897;29;20988;-61
2024/01/07 01:03:26;;;;;;;16.40;12.23;;;6.50;99.90;;;;;;4903253;29;20267;-65
2024/01/07 01:05:52;;;;;;;18.00;13.50;;;6.30;99.90;;;;;;4902436;29;20440;-66
2024/01/07 01:08:17;;;;;;;16.70;13.20;;;6.20;99.90;;;;;;4901384;29;20432;-65
2024/01/07 01:10:43;;;;;;;17.83;11.90;;;6.10;99.90;;;;;;4886305;29;20503;-66
2024/01/07 01:13:09;;;;;;;17.97;12.47;;;6.00;99.90;;;;;;4876164;29;20441;-65
2024/01/07 01:15:35;;;;;;;14.73;11.37;;;6.00;99.90;;;;;;4878221;29;20407;-64
2024/01/07 01:18:01;;;;;;;15.90;11.47;;;6.00;99.90;;;;;;4900920;29;20428;-64
2024/01/07 01:20:27;;;;;;;14.97;11.70;;;6.10;99.90;;;;;;4903040;29;20184;-65
2024/01/07 01:22:53;;;;;;;14.87;11.37;;;6.20;99.90;;;;;;4902570;29;20437;-65
2024/01/07 01:25:18;;;;;;;15.10;12.13;;;6.30;99.90;;;;;;4900807;29;20184;-64
2024/01/07 01:27:44;;;;;;;14.70;11.43;;;6.30;99.90;;;;;;4902976;29;20185;-66
2024/01/07 01:30:11;;;;;;;14.50;11.60;;;6.30;99.90;;;;;;4901144;29;20218;-65
2024/01/07 01:32:37;;;;;;;14.90;11.30;;;6.30;99.90;;;;;;4902178;29;20424;-65
2024/01/07 01:35:04;;;;;;;14.63;12.00;;;6.50;99.90;;;;;;4902118;29;20392;-64
2024/01/07 01:37:32;;;;;;;13.77;12.00;;;6.40;99.90;;;;;;4901962;29;20308;-65
2024/01/07 01:39:58;;;;;;;14.80;11.53;;;6.40;99.90;;;;;;4900031;29;20444;-61
2024/01/07 01:42:25;;;;;;;16.40;11.63;;;6.30;99.90;;;;;;4899337;29;20476;-65
2024/01/07 01:44:51;;;;;;;15.07;11.50;;;6.30;99.90;;;;;;4899048;29;20437;-64
2024/01/07 01:47:18;;;;;;;17.43;11.70;;;6.30;99.90;;;;;;4898339;29;20437;-64
2024/01/07 01:49:45;;;;;;;17.33;11.77;;;6.30;99.90;;;;;;4899730;29;20949;-65
2024/01/07 01:52:12;;;;;;;17.70;13.10;;;6.40;99.90;;;;;;4898291;29;20529;-64
2024/01/07 01:54:38;;;;;;;16.60;12.30;;;6.30;99.90;;;;;;4895189;29;20437;-65
2024/01/07 01:57:05;;;;;;;15.40;12.10;;;6.30;99.90;;;;;;4881549;29;20590;-63
2024/01/07 01:59:33;;;;;;;18.50;13.00;;;6.30;99.90;;;;;;4882385;29;20806;-64
2024/01/07 02:02:00;;;;;;;17.80;13.10;;;6.30;99.90;;;;;;4898490;29;20516;-60
2024/01/07 02:04:26;;;;;;;20.43;13.90;;;6.20;99.90;;;;;;4899251;29;20566;-64
2024/01/07 02:06:52;;;;;;;18.03;13.87;;;6.30;99.90;;;;;;4882002;29;20467;-64
2024/01/07 02:09:18;;;;;;;18.17;14.47;;;6.10;99.90;;;;;;4897630;29;20437;-64
2024/01/07 02:11:59;;;;;;;18.27;14.00;;;6.20;99.90;;;;;;4899108;29;20417;-64
2024/01/07 02:14:25;;;;;;;19.30;14.57;;;6.10;99.90;;;;;;4885377;29;20679;-64
2024/01/07 02:16:50;;;;;;;21.77;14.70;;;6.20;99.90;;;;;;4890390;29;20565;-64
2024/01/07 02:19:18;;;;;;;21.43;15.20;;;6.20;99.90;;;;;;4895475;29;20235;-64
2024/01/07 02:21:43;;;;;;;19.27;14.47;;;6.20;99.90;;;;;;4899230;29;20181;-65
2024/01/07 02:24:18;;;;;;;21.47;15.67;;;6.30;99.90;;;;;;4897667;29;20439;-64
2024/01/07 02:26:44;;;;;;;20.33;13.67;;;6.20;99.90;;;;;;4898748;29;20207;-65
2024/01/07 02:29:09;;;;;;;22.00;15.67;;;6.00;99.90;;;;;;4898287;29;20905;-64
2024/01/07 02:31:35;;;;;;;19.77;14.80;;;5.80;99.90;;;;;;4898343;29;20770;-65
2024/01/07 02:34:01;;;;;;;22.30;14.67;;;5.70;99.90;;;;;;4897991;29;20213;-60
2024/01/07 02:36:27;;;;;;;22.00;15.40;;;5.80;99.90;;;;;;4897427;29;20336;-63
2024/01/07 02:38:52;;;;;;;20.07;15.10;;;5.70;99.90;;;;;;4892562;29;20317;-64
2024/01/07 02:41:19;;;;;;;26.63;16.00;;;5.70;99.90;;;;;;4888968;29;20187;-64
2024/01/07 02:43:45;;;;;;;20.40;16.02;;;5.70;99.90;;;;;;4882459;29;20185;-64
2024/01/07 02:46:11;;;;;;;21.80;15.43;;;5.60;99.90;;;;;;4895782;29;20279;-64
2024/01/07 02:48:37;;;;;;;20.73;14.13;;;5.70;99.90;;;;;;4898018;29;20687;-64
2024/01/07 02:51:06;;;;;;;20.47;15.03;;;5.60;99.90;;;;;;4898579;29;20688;-61
2024/01/07 02:53:31;;;;;;;18.80;14.95;;;5.50;99.90;;;;;;4897836;29;20187;-64
2024/01/07 02:55:57;;;;;;;24.20;14.60;;;5.40;99.90;;;;;;4897187;29;20557;-64
2024/01/07 02:58:23;;;;;;;17.23;14.03;;;5.50;99.90;;;;;;4895175;29;20754;-64
2024/01/07 03:00:48;;;;;;;19.57;15.40;;;5.50;99.90;;;;;;4891635;29;20195;-65
2024/01/07 03:03:14;;;;;;;15.57;12.10;;;5.40;99.90;;;;;;4896557;29;20190;-64
2024/01/07 03:05:40;;;;;;;19.73;14.87;;;5.50;99.90;;;;;;4897575;29;20586;-65
2024/01/07 03:08:06;;;;;;;21.60;15.23;;;5.60;99.90;;;;;;4896946;29;20179;-60
2024/01/07 03:10:32;;;;;;;18.00;13.80;;;5.50;99.90;;;;;;4891124;29;20187;-63
2024/01/07 03:12:57;;;;;;;20.80;15.50;;;5.50;99.90;;;;;;4897107;29;20929;-64
2024/01/07 03:15:23;;;;;;;16.60;13.60;;;5.60;99.90;;;;;;4896775;29;20180;-64
2024/01/07 03:17:49;;;;;;;20.53;13.50;;;5.50;99.90;;;;;;4897152;29;20215;-64
2024/01/07 03:20:15;;;;;;;18.67;14.23;;;5.60;99.90;;;;;;4897363;29;20172;-65
2024/01/07 03:22:40;;;;;;;20.67;14.87;;;5.70;99.90;;;;;;4896216;29;20402;-63
2024/01/07 03:25:07;;;;;;;21.53;15.70;;;5.60;99.90;;;;;;4893652;29;20187;-61
2024/01/07 03:27:33;;;;;;;18.40;14.00;;;5.70;99.90;;;;;;4897879;29;20191;-64
2024/01/07 03:29:58;;;;;;;18.07;13.93;;;5.70;99.90;;;;;;4897230;29;20428;-65
2024/01/07 03:32:24;;;;;;;17.40;14.23;;;5.70;99.90;;;;;;4896283;29;20179;-64
2024/01/07 03:34:50;;;;;;;18.47;14.60;;;5.70;99.90;;;;;;4897252;29;20187;-63
2024/01/07 03:37:17;;;;;;;15.07;12.80;;;5.70;99.90;;;;;;4896817;29;20221;-64
2024/01/07 03:39:43;;;;;;;15.07;12.47;;;5.70;99.90;;;;;;4897807;29;20185;-64
2024/01/07 03:42:11;;;;;;;17.43;14.10;;;5.70;99.90;;;;;;4896970;29;20413;-63
2024/01/07 03:44:38;;;;;;;16.27;13.10;;;5.70;99.90;;;;;;4897687;29;20485;-65
2024/01/07 03:47:05;;;;;;;17.27;12.85;;;5.70;99.90;;;;;;4896807;29;20467;-62
2024/01/07 03:49:30;;;;;;;15.70;12.30;;;5.60;99.90;;;;;;4879721;29;20189;-64
2024/01/07 03:51:56;;;;;;;16.23;13.10;;;5.70;99.90;;;;;;4890223;29;20288;-64
2024/01/07 03:54:22;;;;;;;14.67;13.10;;;5.70;99.90;;;;;;4895967;29;20184;-64
2024/01/07 03:56:47;;;;;;;17.10;12.40;;;5.70;99.90;;;;;;4897103;29;20231;-65
2024/01/07 03:59:13;;;;;;;17.93;12.83;;;5.80;99.90;;;;;;4895596;29;20180;-64
2024/01/07 04:01:39;;;;;;;16.70;12.43;;;5.80;99.90;;;;;;4896886;29;20190;-65
2024/01/07 04:04:04;;;;;;;15.57;12.83;;;5.80;99.90;;;;;;4897406;29;20568;-65
2024/01/07 04:06:30;;;;;;;16.20;12.90;;;5.90;99.90;;;;;;4895721;29;20315;-64
2024/01/07 04:08:56;;;;;;;15.73;12.80;;;5.90;99.90;;;;;;4895571;29;20548;-64
2024/01/07 04:11:22;;;;;;;15.33;13.40;;;5.80;99.90;;;;;;4896584;29;20179;-64
2024/01/07 04:13:47;;;;;;;16.87;13.77;;;5.60;99.90;;;;;;4896597;29;20704;-64
2024/01/07 04:16:17;;;;;;;17.30;13.43;;;5.60;99.90;;;;;;4895736;29;20234;-64
2024/01/07 04:18:43;;;;;;;16.35;13.13;;;5.50;99.90;;;;;;4896292;29;20194;-64
2024/01/07 04:21:12;;;;;;;22.03;15.57;;;5.40;99.90;;;;;;4895997;29;20637;-60
2024/01/07 04:23:41;;;;;;;22.95;15.15;;;5.50;99.90;;;;;;4894040;29;20661;-64
2024/01/07 04:26:07;;;;;;;20.35;13.10;;;5.50;99.90;;;;;;4897027;29;20203;-60
2024/01/07 04:28:33;;;;;;;18.90;13.57;;;5.50;99.90;;;;;;4895954;29;20187;-64
2024/01/07 04:30:59;;;;;;;21.50;14.40;;;5.60;99.90;;;;;;4896423;29;20545;-64
2024/01/07 04:33:24;;;;;;;20.70;14.83;;;5.50;99.90;;;;;;4879661;29;20179;-65
2024/01/07 04:35:50;;;;;;;19.37;14.70;;;5.30;99.90;;;;;;4896394;29;20191;-65
2024/01/07 04:38:16;;;;;;;17.90;14.47;;;5.40;99.90;;;;;;4895107;29;20621;-64
2024/01/07 04:40:41;;;;;;;17.90;13.17;;;5.50;99.90;;;;;;4897407;29;20266;-65
2024/01/07 04:43:07;;;;;;;16.80;12.60;;;5.40;99.90;;;;;;4896322;29;20258;-61
2024/01/07 04:45:33;;;;;;;17.00;13.57;;;5.20;99.90;;;;;;4895380;29;20191;-64
2024/01/07 04:47:59;;;;;;;19.77;14.20;;;5.20;99.90;;;;;;4897049;29;20188;-65
2024/01/07 04:50:24;;;;;;;19.10;13.67;;;5.30;99.90;;;;;;4895685;29;20187;-64
2024/01/07 04:52:50;;;;;;;17.53;13.80;;;5.50;99.90;;;;;;4895998;29;20191;-64
2024/01/07 04:55:16;;;;;;;17.50;13.27;;;5.40;99.90;;;;;;4895763;29;20219;-64
2024/01/07 04:57:42;;;;;;;18.83;13.70;;;5.30;99.90;;;;;;4896278;29;20303;-65
2024/01/07 05:00:08;;;;;;;17.40;13.20;;;5.30;99.90;;;;;;4895635;29;20191;-62
2024/01/07 05:02:33;;;;;;;16.30;12.43;;;5.20;99.90;;;;;;4879427;29;20221;-64
2024/01/07 05:04:59;;;;;;;16.57;12.13;;;5.00;99.90;;;;;;4896159;29;20660;-65
2024/01/07 05:07:25;;;;;;;15.90;12.90;;;5.00;99.90;;;;;;4891025;29;20244;-64
2024/01/07 05:09:50;;;;;;;19.23;13.43;;;5.00;99.90;;;;;;4896909;29;20194;-65
2024/01/07 05:12:16;;;;;;;17.10;13.57;;;4.90;99.90;;;;;;4894704;29;20198;-64
2024/01/07 05:14:42;;;;;;;15.20;12.00;;;5.20;99.90;;;;;;4878858;29;20521;-65
2024/01/07 05:17:09;;;;;;;16.33;12.60;;;5.20;99.90;;;;;;4897694;29;20351;-65
2024/01/07 05:19:34;;;;;;;18.52;12.73;;;5.20;99.90;;;;;;4899261;29;20240;-64
2024/01/07 05:22:00;;;;;;;15.50;13.33;;;5.20;99.90;;;;;;4899605;29;20712;-65
2024/01/07 05:24:26;;;;;;;15.90;13.00;;;5.30;99.90;;;;;;4898831;29;20183;-63
2024/01/07 05:26:52;;;;;;;16.37;13.00;;;5.40;99.90;;;;;;4884924;29;20910;-65
2024/01/07 05:29:18;;;;;;;19.45;13.50;;;5.30;99.90;;;;;;4898686;29;20194;-64
2024/01/07 05:31:44;;;;;;;19.70;14.27;;;5.10;99.90;;;;;;4899409;29;20262;-64
2024/01/07 05:34:10;;;;;;;18.97;13.97;;;5.20;99.90;;;;;;4900032;29;20199;-65
2024/01/07 05:36:35;;;;;;;19.07;14.27;;;5.30;99.90;;;;;;4898402;29;20637;-64
2024/01/07 05:39:01;;;;;;;16.60;13.60;;;5.40;99.90;;;;;;4897068;29;20213;-64
2024/01/07 05:41:27;;;;;;;17.33;13.67;;;5.10;99.90;;;;;;4880314;29;20502;-64
2024/01/07 05:43:53;;;;;;;19.07;14.17;;;4.90;99.90;;;;;;4899448;29;20428;-64
2024/01/07 05:46:19;;;;;;;18.07;13.97;;;5.00;99.90;;;;;;4898583;29;20187;-63
2024/01/07 05:48:46;;;;;;;18.87;14.07;;;5.10;99.90;;;;;;4899258;29;20478;-66
2024/01/07 05:51:13;;;;;;;17.65;14.23;;;5.20;99.90;;;;;;4898217;29;20729;-60
2024/01/07 05:53:40;;;;;;;16.98;12.95;;;5.30;99.90;;;;;;4898664;29;20191;-63
2024/01/07 05:56:06;;;;;;;16.33;13.30;;;5.20;99.90;;;;;;4898682;29;20239;-64
2024/01/07 05:58:32;;;;;;;16.10;13.68;;;4.90;99.90;;;;;;4897448;29;20680;-63
2024/01/07 06:00:57;;;;;;;20.87;14.33;;;5.00;99.90;;;;;;4898310;29;20235;-64
2024/01/07 06:03:23;;;;;;;20.50;14.43;;;5.10;99.90;;;;;;4898622;29;20400;-65
2024/01/07 06:05:49;;;;;;;16.40;14.40;;;5.10;99.90;;;;;;4898785;29;20696;-66
2024/01/07 06:08:15;;;;;;;20.53;15.60;;;5.20;99.90;;;;;;4897648;29;20270;-61
2024/01/07 06:10:41;;;;;;;18.20;13.73;;;5.20;99.90;;;;;;4899452;29;20419;-64
2024/01/07 06:13:07;;;;;;;17.83;14.45;;;5.20;99.90;;;;;;4896654;29;20436;-66
2024/01/07 06:15:32;;;;;;;17.77;14.40;;;5.40;99.90;;;;;;4897846;29;20365;-66
2024/01/07 06:17:58;;;;;;;17.13;14.27;;;5.10;99.90;;;;;;4898587;29;20505;-66
2024/01/07 06:20:24;;;;;;;19.00;13.67;;;5.20;99.90;;;;;;4898268;29;20535;-65
2024/01/07 06:22:50;;;;;;;17.50;13.93;;;5.20;99.90;;;;;;4898437;29;20198;-67
2024/01/07 06:25:16;;;;;;;19.80;14.40;;;5.30;99.90;;;;;;4897750;29;20175;-62
2024/01/07 06:27:42;;;;;;;21.17;15.45;;;5.20;99.90;;;;;;4889203;29;20429;-66
2024/01/07 06:30:08;;;;;;;18.03;13.97;;;5.30;99.90;;;;;;4895828;29;20219;-65
2024/01/07 06:32:35;;;;;;;17.80;13.82;;;5.30;99.90;;;;;;4880658;29;21281;-65
2024/01/07 06:35:01;;;;;;;21.10;15.20;;;5.20;99.90;;;;;;4899023;29;20187;-66
2024/01/07 06:37:29;;;;;;;22.03;15.77;;;5.30;99.90;;;;;;4897178;29;20468;-65
2024/01/07 06:39:55;;;;;;;19.37;14.60;;;5.30;99.90;;;;;;4896814;29;20468;-66
2024/01/07 06:42:21;;;;;;;20.40;13.87;;;5.40;99.90;;;;;;4898128;29;20404;-65
2024/01/07 06:44:46;;;;;;;18.00;14.80;;;5.20;99.90;;;;;;4898075;29;20410;-65
2024/01/07 06:47:13;;;;;;;18.40;14.20;;;5.20;99.90;;;;;;4897837;29;20188;-66
2024/01/07 06:49:39;;;;;;;22.33;16.15;;;5.40;99.90;;;;;;4898000;29;20552;-66
2024/01/07 06:52:05;;;;;;;20.20;16.23;;;5.30;99.90;;;;;;4898009;29;20235;-66
2024/01/07 06:54:31;;;;;;;20.05;15.95;;;5.30;99.90;;;;;;4897315;29;20539;-66
2024/01/07 06:56:56;;;;;;;20.10;14.07;;;5.40;99.90;;;;;;4897981;29;20234;-65
2024/01/07 06:59:22;;;;;;;19.87;15.97;;;5.50;99.90;;;;;;4897748;29;20411;-65
2024/01/07 07:01:48;;;;;;;17.80;14.80;;;5.40;99.90;;;;;;4869391;29;20295;-66
2024/01/07 07:04:14;;;;;;;19.10;14.50;;;5.40;99.90;;;;;;4885200;29;20578;-67
2024/01/07 07:06:40;;;;;;;20.67;16.10;;;5.50;99.90;;;;;;4897614;29;20417;-66
2024/01/07 07:09:05;;;;;;;19.40;14.43;;;5.50;99.90;;;;;;4897642;29;20199;-67
2024/01/07 07:11:32;;;;;;;18.20;13.40;;;5.30;99.90;;;;;;4892988;29;20207;-66
2024/01/07 07:13:57;;;;;;;20.35;13.35;;;5.40;99.90;;;;;;4898348;29;20179;-66
2024/01/07 07:16:23;;;;;;;16.73;13.60;;;5.30;99.90;;;;;;4897435;29;20221;-66
2024/01/07 07:18:49;;;;;;;17.00;12.57;;;5.30;99.90;;;;;;4895842;29;20191;-66
2024/01/07 07:21:15;;;;;;;17.57;12.77;;;5.50;99.90;;;;;;4894900;29;20210;-67
2024/01/07 07:23:40;;;;;;;16.40;12.30;;;5.50;99.90;;;;;;4896625;29;20186;-66
2024/01/07 07:26:08;;;;;;;16.33;12.43;;;5.40;99.90;;;;;;4897309;29;20659;-67
2024/01/07 07:28:33;;;;;;;15.48;11.80;;;5.50;99.90;;;;;;4895257;29;20562;-66
2024/01/07 07:30:59;;;;;;;14.23;12.73;;;5.40;99.90;;;;;;4892057;29;20192;-66
2024/01/07 07:33:25;;;;;;;14.97;12.30;;;5.50;99.90;;;;;;4897108;29;20177;-66
2024/01/07 07:35:51;;;;;;;13.77;10.53;;;5.60;99.90;;;;;;4897453;29;20192;-67
2024/01/07 07:38:16;;;;;;;14.33;11.20;;;5.50;99.90;;;;;;4894770;29;20250;-66
2024/01/07 07:40:42;;;;;;;16.37;12.27;;;5.50;99.90;;;;;;4878590;29;20180;-66
2024/01/07 07:43:09;;;;;;;12.60;10.60;;;5.50;99.90;;;;;;4896765;29;20183;-67
2024/01/07 07:45:35;;;;;;;13.45;10.70;;;5.40;99.90;;;;;;4895823;29;20183;-67
2024/01/07 07:48:00;;;;;;;17.93;13.40;;;5.40;99.90;;;;;;4896758;29;20203;-66
2024/01/07 07:50:26;;;;;;;19.30;13.10;;;5.50;99.90;;;;;;4892989;29;20179;-66
2024/01/07 07:52:53;;;;;;;14.83;11.33;;;5.40;99.90;;;;;;4872333;29;20415;-69
2024/01/07 07:55:19;;;;;;;14.63;11.77;;;5.30;99.90;;;;;;4885736;29;20228;-62
2024/01/07 07:57:46;;;;;;;16.42;13.15;;;5.20;99.90;;;;;;4878615;29;20245;-66
2024/01/07 08:00:12;;;;;;;13.77;12.10;;;5.20;99.90;;;;;;4893801;29;20196;-65
2024/01/07 08:02:39;;;;;;;12.60;10.88;;;5.10;99.90;;;;;;4896624;29;20187;-66
2024/01/07 08:05:06;;;;;;;13.02;11.00;;;5.20;99.90;;;;;;4894291;29;20187;-65
2024/01/07 08:07:32;;;;;;;10.00;9.00;;;5.20;99.90;;;;;;4891859;29;20910;-65
2024/01/07 08:09:58;;;;;;;10.53;9.10;;;5.00;99.90;;;;;;4891869;29;20278;-64
2024/01/07 08:12:24;;;;;;;11.17;9.43;;;5.00;99.90;;;;;;4879069;29;20192;-61
2024/01/07 08:14:49;;;;;;;13.45;11.13;;;5.00;99.90;;;;;;4887761;29;20626;-63
2024/01/07 08:17:15;;;;;;;11.20;9.77;;;5.00;99.90;;;;;;4860731;29;20232;-63
2024/01/07 08:19:41;;;;;;;15.90;10.63;;;5.00;99.90;;;;;;4875480;29;20234;-64
2024/01/07 08:22:09;;;;;;;13.82;11.23;;;5.00;99.90;;;;;;4876278;29;20187;-63
2024/01/07 08:24:35;;;;;;;12.57;9.80;;;5.00;99.90;;;;;;4891760;29;20184;-63
2024/01/07 08:27:02;;;;;;;13.60;10.30;;;4.90;99.90;;;;;;4884322;29;20609;-63
2024/01/07 08:29:29;;;;;;;11.48;10.27;;;4.80;99.90;;;;;;4876088;29;20463;-64
2024/01/07 08:31:54;;;;;;;14.55;10.70;;;4.70;99.90;;;;;;4888933;29;20214;-63
2024/01/07 08:34:20;;;;;;;15.07;12.73;;;4.60;99.90;;;;;;4892922;29;20225;-60
2024/01/07 08:36:46;;;;;;;15.20;11.73;;;4.70;99.90;;;;;;4892492;29;20511;-65
2024/01/07 08:39:14;;;;;;;16.93;11.83;;;4.80;99.90;;;;;;4893396;29;20450;-64
2024/01/07 08:41:40;;;;;;;15.23;12.25;;;4.60;99.90;;;;;;4875344;29;21126;-65
2024/01/07 08:44:08;;;;;;;17.03;12.73;;;4.60;99.90;;;;;;4887892;29;20224;-63
2024/01/07 08:46:34;;;;;;;16.00;12.82;;;4.70;99.90;;;;;;4885547;29;20242;-64
2024/01/07 08:49:00;;;;;;;15.95;13.25;;;4.70;99.90;;;;;;4891331;29;20281;-62
2024/01/07 08:51:26;;;;;;;15.40;13.50;;;4.60;99.90;;;;;;4892476;29;20214;-64
2024/01/07 08:53:51;;;;;;;19.23;14.40;;;4.70;99.90;;;;;;4892529;29;20536;-63
2024/01/07 08:56:18;;;;;;;16.43;14.00;;;4.70;99.90;;;;;;4895990;29;20238;-64
2024/01/07 08:58:43;;;;;;;15.27;11.85;;;4.80;99.90;;;;;;4892415;29;20195;-64
2024/01/07 09:01:09;;;;;;;13.97;11.77;;;4.80;99.90;;;;;;4876866;29;20547;-64
2024/01/07 09:03:35;;;;;;;14.37;12.10;;;4.80;99.90;;;;;;4894515;29;20624;-64
2024/01/07 09:06:00;;;;;;;16.63;12.00;;;4.70;99.90;;;;;;4899784;29;20406;-64
2024/01/07 09:08:26;;;;;;;18.83;13.50;;;4.80;99.90;;;;;;4896610;29;20188;-63
2024/01/07 09:10:52;;;;;;;16.03;12.50;;;4.70;99.90;;;;;;4899788;29;20532;-62
2024/01/07 09:13:18;;;;;;;14.80;11.90;;;4.70;99.90;;;;;;4899254;29;20225;-65
2024/01/07 09:15:43;;;;;;;16.30;12.93;;;4.60;99.90;;;;;;4899164;29;20179;-63
2024/01/07 09:18:09;;;;;;;12.30;10.77;;;4.60;99.90;;;;;;4899106;29;20278;-65
2024/01/07 09:20:35;;;;;;;13.17;9.80;;;4.60;99.90;;;;;;4898811;29;20266;-64
2024/01/07 09:23:01;;;;;;;11.70;9.47;;;4.60;99.90;;;;;;4900527;29;20579;-65
2024/01/07 09:25:26;;;;;;;17.03;11.60;;;4.70;99.90;;;;;;4899041;29;20183;-61
2024/01/07 09:27:52;;;;;;;15.53;11.83;;;4.50;99.90;;;;;;4899715;29;20335;-65
2024/01/07 09:30:18;;;;;;;13.27;10.47;;;4.60;99.90;;;;;;4899510;29;20198;-65
2024/01/07 09:32:44;;;;;;;17.77;11.90;;;4.60;99.90;;;;;;4894111;29;20171;-64
2024/01/07 09:35:10;;;;;;;13.03;9.60;;;4.50;99.90;;;;;;4894978;29;20405;-65
2024/01/07 09:37:36;;;;;;;12.27;10.07;;;4.60;99.90;;;;;;4895455;29;20215;-65
2024/01/07 09:40:04;;;;;;;9.43;8.20;;;4.60;99.90;;;;;;4889234;29;20180;-65
2024/01/07 09:42:30;;;;;;;11.82;8.88;;;4.70;99.90;;;;;;4889513;29;20210;-65
2024/01/07 09:44:56;;;;;;;9.90;8.80;;;4.60;99.90;;;;;;4893645;29;20183;-65
2024/01/07 09:47:23;;;;;;;10.60;8.00;;;4.50;99.90;;;;;;4890184;29;20708;-65
2024/01/07 09:49:49;;;;;;;9.63;8.00;;;4.50;99.90;;;;;;4891388;29;20172;-65
2024/01/07 09:52:17;;;;;;;12.10;8.90;;;4.40;99.90;;;;;;4884219;29;20584;-65
2024/01/07 09:54:46;;;;;;;10.95;9.68;;;4.40;99.90;;;;;;4884299;29;20411;-64
2024/01/07 09:57:12;;;;;;;10.90;8.43;;;4.40;99.90;;;;;;4895503;29;20231;-65
2024/01/07 09:59:39;;;;;;;13.43;12.03;;;4.40;99.90;;;;;;4894822;29;20732;-64
2024/01/07 10:02:05;;;;;;;13.60;12.15;;;4.90;99.90;;;;;;4895653;29;20199;-64
2024/01/07 10:04:31;;;;;;;12.53;11.43;;;6.30;99.90;;;;;;4893814;29;20196;-64
2024/01/07 10:06:57;;;;;;;13.35;12.07;;;7.20;99.90;;;;;;4887363;29;20603;-64
2024/01/07 10:09:23;;;;;;;13.43;12.03;;;8.10;99.90;;;;;;4889973;29;20659;-65
2024/01/07 10:11:49;;;;;;;12.87;10.90;;;8.60;99.90;;;;;;4875309;29;20442;-65
2024/01/07 10:14:16;;;;;;;46.33;29.80;;;9.20;99.90;;;;;;4894415;29;20455;-65
2024/01/07 10:16:41;;;;;;;26.80;19.70;;;9.70;99.90;;;;;;4881044;29;20544;-64
2024/01/07 10:19:07;;;;;;;42.93;27.57;;;10.10;99.90;;;;;;4906008;29;20937;-65
2024/01/07 10:21:34;;;;;;;31.70;21.27;;;10.40;99.90;;;;;;4898019;29;20634;-65
2024/01/07 10:24:13;;;;;;;48.60;29.53;;;10.40;99.10;;;;;;4896813;29;20441;-66
2024/01/07 10:26:40;;;;;;;51.90;30.90;;;10.60;99.90;;;;;;4890950;29;20966;-64
2024/01/07 10:29:08;;;;;;;44.97;27.47;;;10.80;99.90;;;;;;4894015;29;20468;-64
2024/01/07 10:31:34;;;;;;;28.27;16.70;;;10.80;99.90;;;;;;4881144;29;20429;-64
2024/01/07 10:34:00;;;;;;;25.83;17.80;;;10.90;99.90;;;;;;4897570;29;20438;-65
2024/01/07 10:36:25;;;;;;;24.83;18.13;;;11.00;99.90;;;;;;4883677;29;20938;-65
2024/01/07 10:38:52;;;;;;;20.77;15.50;;;11.30;99.90;;;;;;4887004;29;20635;-65
2024/01/07 10:41:21;;;;;;;15.50;12.60;;;11.50;99.90;;;;;;4909980;29;20188;-65
2024/01/07 10:43:48;;;;;;;19.17;14.93;;;11.60;99.90;;;;;;4879860;29;20439;-64
2024/01/07 10:46:14;;;;;;;13.53;12.13;;;11.80;99.90;;;;;;4881265;29;20503;-65
2024/01/07 10:48:54;;;;;;;14.47;12.57;;;11.80;99.90;;;;;;4897564;29;20428;-64
2024/01/07 10:51:21;;;;;;;37.77;26.50;;;12.00;99.90;;;;;;4880033;29;20465;-66
2024/01/07 10:53:53;;;;;;;46.03;29.20;;;12.10;99.90;;;;;;4897929;29;20416;-65
2024/01/07 10:56:23;;;;;;;102.53;63.13;;;12.00;94.90;;;;;;4880051;29;20975;-65
2024/01/07 10:58:51;;;;;;;43.33;29.53;;;12.00;99.90;;;;;;4887596;29;20439;-65
2024/01/07 11:01:18;;;;;;;65.73;41.77;;;11.90;99.20;;;;;;4879777;29;20425;-65
2024/01/07 11:03:46;;;;;;;41.33;28.03;;;11.80;96.70;;;;;;4889038;29;20438;-65
2024/01/07 11:06:18;;;;;;;29.90;21.57;;;11.80;99.90;;;;;;4880320;29;20954;-65
2024/01/07 11:08:56;;;;;;;43.83;30.53;;;11.80;99.90;;;;;;4866991;29;20439;-65
2024/01/07 11:11:37;;;;;;;40.50;28.30;;;11.80;97.20;;;;;;4895853;29;20423;-65
2024/01/07 11:14:02;;;;;;;19.63;15.33;;;11.90;99.60;;;;;;4895796;29;20490;-66
2024/01/07 11:16:44;;;;;;;11.07;9.73;;;11.50;95.60;;;;;;4894125;29;20464;-69
2024/01/07 11:19:12;;;;;;;12.50;10.33;;;10.70;83.20;;;;;;4889079;29;20524;-68
2024/01/07 11:21:38;;;;;;;10.23;9.00;;;9.60;87.00;;;;;;4886547;29;20433;-70
2024/01/07 11:24:04;;;;;;;8.80;7.60;;;9.00;90.50;;;;;;4883185;29;20475;-72
2024/01/07 11:26:30;;;;;;;10.07;7.87;;;8.40;91.70;;;;;;4881345;29;20198;-64
2024/01/07 11:28:57;;;;;;;134.20;75.30;;;8.00;91.80;;;;;;4897736;29;20426;-71
2024/01/07 11:31:41;;;;;;;359.23;201.73;;;7.70;93.10;;;;;;4891917;29;20429;-71
2024/01/07 11:34:08;;;;;;;15.93;13.60;;;7.30;96.20;;;;;;4879655;29;20905;-71
2024/01/07 11:36:37;;;;;;;11.83;9.87;;;6.90;98.60;;;;;;4884376;29;20469;-65
2024/01/07 11:39:06;;;;;;;14.00;11.77;;;6.30;99.50;;;;;;4893889;29;20429;-71
2024/01/07 11:41:36;;;;;;;13.70;11.10;;;5.90;99.90;;;;;;4879545;29;20447;-64
2024/01/07 11:44:02;;;;;;;12.80;10.80;;;5.60;99.90;;;;;;4897674;29;20425;-71
2024/01/07 11:46:30;;;;;;;13.50;10.73;;;5.40;99.90;;;;;;4895943;29;20225;-71
2024/01/07 11:48:59;;;;;;;10.80;8.98;;;5.20;99.90;;;;;;4895317;29;20195;-70
2024/01/07 11:51:34;;;;;;;12.10;10.32;;;5.00;99.90;;;;;;4878476;29;20183;-71
2024/01/07 11:54:01;;;;;;;14.23;11.10;;;5.00;99.90;;;;;;4893351;29;20211;-70
2024/01/07 11:56:27;;;;;;;12.30;8.85;;;4.90;99.90;;;;;;4888078;29;20258;-70
2024/01/07 11:58:54;;;;;;;9.40;8.48;;;4.80;99.90;;;;;;4895931;29;20182;-71
2024/01/07 12:01:20;;;;;;;18.65;12.40;;;4.70;99.90;;;;;;4894155;29;20190;-70
2024/01/07 12:03:46;;;;;;;12.30;10.17;;;4.60;99.90;;;;;;4896654;29;20179;-71
2024/01/07 12:06:15;;;;;;;14.30;9.98;;;4.50;99.90;;;;;;4879960;29;20183;-71
2024/01/07 12:08:42;;;;;;;15.18;10.10;;;4.50;99.90;;;;;;4883600;29;20277;-72
2024/01/07 12:11:11;;;;;;;12.32;9.23;;;4.50;99.90;;;;;;4879405;29;20564;-72
2024/01/07 12:13:37;;;;;;;12.95;10.05;;;4.40;99.90;;;;;;4896420;29;20185;-64
2024/01/07 12:16:04;;;;;;;10.05;8.43;;;4.40;99.90;;;;;;4869204;29;20178;-71
2024/01/07 12:18:30;;;;;;;10.50;9.40;;;4.50;99.90;;;;;;4896958;29;20183;-71
2024/01/07 12:21:00;;;;;;;12.17;9.80;;;4.30;99.90;;;;;;4894971;29;20181;-71
2024/01/07 12:23:26;;;;;;;12.20;10.75;;;4.20;99.90;;;;;;4874835;29;20211;-71
2024/01/07 12:25:53;;;;;;;10.20;9.23;;;4.20;99.90;;;;;;4892725;29;20692;-71
2024/01/07 12:28:19;;;;;;;11.27;8.90;;;4.30;99.90;;;;;;4896912;29;20191;-71
2024/01/07 12:30:47;;;;;;;12.77;10.38;;;4.30;99.90;;;;;;4892494;29;20202;-72
2024/01/07 12:33:19;;;;;;;12.55;10.02;;;4.30;99.90;;;;;;4895295;29;20222;-70